Time;durP1;ratioP1;P1;durP2;ratioP2;P2;SDS_P1;SDS_P2;PMS_P1;PMS_P2;Temp;Humidity;BMP_temperature;BMP_pressure;BME280_temperature;BME280_humidity;BME280_pressure;Samples;Min_cycle;Max_cycle;Signal;HPM_P1;HPM_P2
2022/06/09 00:01:32;;;;;;;1999.90;889.28;;;18.40;99.90;;;;;;5149446;27;20054;-75
2022/06/09 00:04:14;;;;;;;1999.90;760.13;;;19.30;99.90;;;;;;5146621;27;20126;-75
2022/06/09 00:06:44;;;;;;;1999.90;744.55;;;17.90;99.90;;;;;;5135131;27;20039;-75
2022/06/09 00:09:10;;;;;;;1999.90;734.38;;;19.10;99.90;;;;;;5147742;27;20062;-75
2022/06/09 00:11:39;;;;;;;1999.90;646.28;;;18.10;99.90;;;;;;5101046;27;20073;-76
2022/06/09 00:14:07;;;;;;;1999.90;722.55;;;19.60;99.90;;;;;;5137011;27;20039;-76
2022/06/09 00:16:34;;;;;;;;;;;19.50;99.90;;;;;;5134681;27;20047;-76
2022/06/09 00:19:00;;;;;;;1999.90;655.08;;;18.00;99.90;;;;;;5119668;27;20383;-76
2022/06/09 00:21:25;;;;;;;1999.90;828.95;;;18.50;99.90;;;;;;5138126;27;20069;-76
2022/06/09 00:23:51;;;;;;;1999.90;656.33;;;18.40;99.90;;;;;;5143869;27;20047;-76
2022/06/09 00:26:17;;;;;;;1999.90;741.78;;;17.90;99.90;;;;;;5138742;27;20051;-76
2022/06/09 00:28:43;;;;;;;1999.90;643.17;;;18.90;99.90;;;;;;5128011;27;20049;-76
2022/06/09 00:31:09;;;;;;;1999.90;718.13;;;18.90;99.90;;;;;;5142369;27;20063;-76
2022/06/09 00:33:34;;;;;;;1999.90;924.85;;;19.40;99.90;;;;;;5140390;27;20054;-80
2022/06/09 00:36:00;;;;;;;1999.90;734.80;;;18.20;99.90;;;;;;5132798;27;20407;-76
2022/06/09 00:38:26;;;;;;;1999.90;765.97;;;17.90;99.90;;;;;;5143560;27;20077;-76
2022/06/09 00:40:56;;;;;;;1999.90;643.45;;;17.90;99.90;;;;;;5146734;27;20046;-77
2022/06/09 00:43:22;;;;;;;1999.90;629.85;;;19.30;99.90;;;;;;5143553;27;20051;-77
2022/06/09 00:46:01;;;;;;;1999.90;742.78;;;18.40;99.90;;;;;;5136737;27;20367;-76
2022/06/09 00:48:36;;;;;;;1999.90;711.67;;;18.40;99.90;;;;;;5149312;27;20487;-77
2022/06/09 00:51:25;;;;;;;1999.90;714.75;;;18.70;99.90;;;;;;5135104;27;20475;-76
2022/06/09 00:53:57;;;;;;;1999.90;620.20;;;18.00;99.90;;;;;;5147708;27;20220;-76
2022/06/09 00:56:24;;;;;;;1999.90;678.38;;;19.30;99.90;;;;;;5134386;27;20442;-76
2022/06/09 00:58:52;;;;;;;1999.90;638.73;;;19.00;99.90;;;;;;5140529;27;20064;-76
2022/06/09 01:01:20;;;;;;;1999.90;757.50;;;18.00;99.90;;;;;;5138680;27;20620;-80
2022/06/09 01:03:52;;;;;;;1999.90;699.53;;;19.30;99.90;;;;;;5148152;27;20147;-77
2022/06/09 01:06:22;;;;;;;1999.90;696.65;;;19.40;99.90;;;;;;5134042;27;20126;-78
2022/06/09 01:09:00;;;;;;;1999.90;572.22;;;18.30;99.90;;;;;;5131834;27;20396;-77
2022/06/09 01:11:26;;;;;;;;;;;17.90;99.90;;;;;;5140283;27;20053;-77
2022/06/09 01:13:53;;;;;;;1941.43;428.17;;;18.10;99.90;;;;;;5140788;27;19923;-78
2022/06/09 01:16:23;;;;;;;1999.90;704.20;;;19.30;99.90;;;;;;5144387;27;20050;-77
2022/06/09 01:18:53;;;;;;;1999.90;599.22;;;18.70;99.90;;;;;;5131431;27;20043;-78
2022/06/09 01:21:35;;;;;;;1999.90;664.80;;;18.40;99.90;;;;;;5142341;27;20046;-78
2022/06/09 01:24:39;;;;;;;1999.90;632.72;;;18.20;99.90;;;;;;5147033;27;20042;-78
2022/06/09 01:27:25;;;;;;;1999.90;589.40;;;18.80;99.90;;;;;;5139218;27;20122;-78
2022/06/09 01:30:20;;;;;;;1999.90;668.05;;;18.90;99.90;;;;;;5131199;27;21605;-78
2022/06/09 01:32:50;;;;;;;1999.90;671.67;;;18.20;99.90;;;;;;5089062;27;20047;-78
2022/06/09 01:35:24;;;;;;;1999.90;594.25;;;17.90;99.90;;;;;;5142834;27;20395;-79
2022/06/09 01:37:56;;;;;;;1999.90;777.60;;;17.90;99.90;;;;;;5143731;27;20070;-82
2022/06/09 01:40:23;;;;;;;1999.90;655.95;;;17.70;99.90;;;;;;5138507;27;20039;-79
2022/06/09 01:42:54;;;;;;;1987.32;570.55;;;18.60;99.90;;;;;;5137258;27;20053;-80
2022/06/09 01:45:46;;;;;;;1999.90;743.72;;;17.70;99.90;;;;;;5136079;27;20039;-79
2022/06/09 01:48:14;;;;;;;1990.25;518.20;;;18.30;99.90;;;;;;5136351;27;20046;-79
2022/06/09 01:50:42;;;;;;;1999.90;573.63;;;18.80;99.90;;;;;;5114013;27;20079;-79
2022/06/09 01:53:27;;;;;;;1999.90;660.92;;;19.20;99.90;;;;;;5145159;27;20042;-79
2022/06/09 01:56:00;;;;;;;1999.90;662.20;;;17.60;99.90;;;;;;5139927;27;20054;-82
2022/06/09 01:58:32;;;;;;;1999.90;634.00;;;19.00;99.90;;;;;;5142815;27;20104;-80
2022/06/09 02:01:01;;;;;;;1999.90;717.42;;;18.10;99.90;;;;;;5144465;27;20104;-80
2022/06/09 02:03:31;;;;;;;1999.90;762.85;;;18.30;99.90;;;;;;5132688;27;20047;-80
2022/06/09 02:05:59;;;;;;;1999.90;597.80;;;18.70;99.90;;;;;;5116987;27;20054;-80
2022/06/09 02:08:29;;;;;;;1999.90;427.98;;;18.10;99.90;;;;;;5138274;27;20046;-80
2022/06/09 02:10:59;;;;;;;1999.90;553.55;;;17.70;99.90;;;;;;5136713;27;20054;-80
2022/06/09 02:13:29;;;;;;;1999.90;599.03;;;18.50;99.90;;;;;;5131077;27;20050;-80
2022/06/09 02:15:59;;;;;;;1999.90;512.03;;;19.10;99.90;;;;;;5141024;27;20100;-80
2022/06/09 02:18:27;;;;;;;1999.90;678.10;;;18.20;99.90;;;;;;5142099;27;20086;-80
2022/06/09 02:20:57;;;;;;;1999.90;508.23;;;17.50;99.90;;;;;;5148767;27;20379;-85
2022/06/09 02:23:23;;;;;;;1999.90;575.42;;;17.80;99.90;;;;;;5138832;27;20377;-80
2022/06/09 02:25:49;;;;;;;1999.90;769.53;;;17.60;99.90;;;;;;5141322;27;20063;-80
2022/06/09 02:28:15;;;;;;;1999.90;784.70;;;18.20;99.90;;;;;;5147376;27;20378;-81
2022/06/09 02:30:41;;;;;;;1999.90;673.35;;;18.70;99.90;;;;;;5125883;27;20496;-81
2022/06/09 02:33:07;;;;;;;1999.90;567.15;;;18.60;99.90;;;;;;5112714;27;20076;-81
2022/06/09 02:35:32;;;;;;;1999.90;507.73;;;18.50;99.90;;;;;;5124510;28;20051;-80
2022/06/09 02:38:00;;;;;;;1999.90;600.47;;;17.50;99.90;;;;;;5136980;27;20047;-82
2022/06/09 02:40:27;;;;;;;1999.90;603.08;;;17.90;99.90;;;;;;5116203;27;20392;-81
2022/06/09 02:42:53;;;;;;;1370.38;260.58;;;18.70;99.90;;;;;;5134941;27;20066;-82
2022/06/09 02:45:19;;;;;;;1880.13;464.80;;;17.60;99.90;;;;;;5136475;27;20051;-82
2022/06/09 02:47:44;;;;;;;1999.90;544.38;;;17.40;99.90;;;;;;5104502;27;20411;-81
2022/06/09 02:50:10;;;;;;;1829.30;353.13;;;18.50;99.90;;;;;;5130621;27;20665;-82
2022/06/09 02:52:36;;;;;;;1991.05;489.70;;;17.40;99.90;;;;;;5115745;27;20103;-81
2022/06/09 02:55:02;;;;;;;1914.78;363.15;;;18.20;99.90;;;;;;5118880;27;20065;-82
2022/06/09 02:57:29;;;;;;;1984.32;365.80;;;18.60;99.90;;;;;;5116826;27;20054;-82
2022/06/09 02:59:55;;;;;;;1999.90;608.88;;;18.00;99.90;;;;;;5124302;27;20562;-81
2022/06/09 03:02:22;;;;;;;1971.85;424.08;;;18.10;99.90;;;;;;5150635;27;20041;-81
2022/06/09 03:04:47;;;;;;;1999.90;684.88;;;17.20;99.90;;;;;;5139654;27;20046;-82
2022/06/09 03:07:14;;;;;;;1439.63;240.40;;;17.30;99.90;;;;;;5141697;27;20054;-81
2022/06/09 03:09:41;;;;;;;1337.72;258.45;;;18.60;99.90;;;;;;5143627;27;20042;-86
2022/06/09 03:12:07;;;;;;;1887.88;658.80;;;17.30;99.90;;;;;;5115769;27;20054;-82
2022/06/09 03:14:33;;;;;;;1545.85;268.00;;;17.40;99.90;;;;;;5143054;27;20130;-83
2022/06/09 03:17:00;;;;;;;1999.90;580.00;;;18.60;99.90;;;;;;5128225;27;20129;-82
2022/06/09 03:19:26;;;;;;;1999.90;674.20;;;17.40;99.90;;;;;;5134494;27;20531;-82
2022/06/09 03:21:52;;;;;;;1499.22;248.20;;;17.30;99.90;;;;;;5109157;27;20085;-88
2022/06/09 03:24:18;;;;;;;1999.90;533.20;;;17.80;99.90;;;;;;5100440;27;20062;-85
2022/06/09 03:26:43;;;;;;;1795.05;446.90;;;18.30;99.90;;;;;;5126161;27;20479;-82
2022/06/09 03:29:10;;;;;;;1257.50;183.82;;;18.10;99.90;;;;;;5131722;27;20052;-84
2022/06/09 03:31:36;;;;;;;1999.90;645.07;;;18.50;99.90;;;;;;5131381;27;20051;-82
2022/06/09 03:34:02;;;;;;;1699.78;283.05;;;18.20;99.90;;;;;;5133644;27;20065;-82
2022/06/09 03:36:31;;;;;;;1469.05;283.60;;;17.20;99.90;;;;;;5119328;27;20039;-82
2022/06/09 03:38:59;;;;;;;1740.75;319.67;;;18.40;99.90;;;;;;5114702;27;20050;-83
2022/06/09 03:41:25;;;;;;;1643.97;431.50;;;17.20;99.90;;;;;;5129120;27;20047;-84
2022/06/09 03:43:50;;;;;;;1864.28;813.03;;;17.40;99.90;;;;;;5149037;27;20080;-80
2022/06/09 03:46:16;;;;;;;1632.63;340.90;;;17.10;99.90;;;;;;5124641;27;20050;-81
2022/06/09 03:48:42;;;;;;;1985.90;376.48;;;17.10;99.90;;;;;;5129295;27;20197;-86
2022/06/09 03:51:09;;;;;;;1982.43;416.67;;;17.20;99.90;;;;;;5118914;27;20102;-83
2022/06/09 03:53:34;;;;;;;1751.80;325.20;;;18.20;99.90;;;;;;5122895;27;20554;-83
2022/06/09 03:56:00;;;;;;;1993.30;457.70;;;17.40;99.90;;;;;;5113288;27;20118;-84
2022/06/09 03:58:26;;;;;;;1783.93;383.75;;;18.20;99.90;;;;;;5128206;27;20039;-83
2022/06/09 04:00:52;;;;;;;1721.75;424.02;;;17.10;99.90;;;;;;5111743;27;20406;-84
2022/06/09 04:03:17;;;;;;;1999.90;513.83;;;17.10;99.90;;;;;;5116943;27;20063;-84
2022/06/09 04:05:43;;;;;;;1996.05;455.90;;;17.90;99.90;;;;;;5103946;27;20036;-85
2022/06/09 04:08:11;;;;;;;1999.90;426.23;;;17.70;99.90;;;;;;5115016;27;20399;-84
2022/06/09 04:10:37;;;;;;;1999.90;483.52;;;17.10;99.90;;;;;;5113683;27;20051;-85
2022/06/09 04:13:03;;;;;;;1999.90;447.50;;;18.70;99.90;;;;;;5122372;27;20071;-84
2022/06/09 04:15:29;;;;;;;1999.90;437.65;;;17.50;99.90;;;;;;5118612;27;20425;-84
2022/06/09 04:17:55;;;;;;;1999.90;525.10;;;18.80;99.90;;;;;;5118184;27;20039;-84
2022/06/09 04:20:24;;;;;;;1999.90;647.67;;;17.60;99.90;;;;;;5107469;28;20557;-84
2022/06/09 04:22:50;;;;;;;1999.90;632.88;;;18.70;99.90;;;;;;5113705;27;20089;-85
2022/06/09 04:25:17;;;;;;;1999.90;576.13;;;18.50;99.90;;;;;;5096528;28;20043;-84
2022/06/09 04:27:44;;;;;;;1999.90;676.90;;;17.30;99.90;;;;;;5114626;27;20456;-85
2022/06/09 04:30:10;;;;;;;1999.90;641.47;;;18.20;99.90;;;;;;5114994;27;20144;-84
2022/06/09 04:32:36;;;;;;;1999.90;508.30;;;18.00;99.90;;;;;;5122534;27;20050;-84
2022/06/09 04:35:02;;;;;;;1999.90;528.95;;;18.20;99.90;;;;;;5108620;27;20055;-85
2022/06/09 04:40:37;;;;;;;1999.90;563.47;;;18.50;99.90;;;;;;5075767;27;20454;-84
2022/06/09 04:43:05;;;;;;;1999.90;466.92;;;17.60;99.90;;;;;;5128512;27;20435;-90
2022/06/09 04:45:32;;;;;;;1999.90;494.40;;;18.90;99.90;;;;;;5116017;27;20043;-85
2022/06/09 04:47:58;;;;;;;1999.90;609.25;;;;;;;;;;5130050;27;20035;-85
2022/06/09 04:50:24;;;;;;;1999.90;569.92;;;18.00;99.90;;;;;;5092752;27;20068;-85
2022/06/09 04:52:50;;;;;;;1999.90;607.63;;;18.50;99.90;;;;;;5069971;28;20496;-84
2022/06/09 04:55:19;;;;;;;1990.32;461.95;;;17.50;99.90;;;;;;5087248;28;20077;-85
2022/06/09 04:57:45;;;;;;;1902.40;388.58;;;18.10;99.90;;;;;;5093459;28;20448;-83
2022/06/09 05:00:13;;;;;;;1999.90;499.33;;;18.50;99.90;;;;;;5080281;28;20040;-84
2022/06/09 05:02:39;;;;;;;1999.90;596.30;;;17.50;99.90;;;;;;5100898;28;20058;-83
2022/06/09 05:05:06;;;;;;;1999.90;486.67;;;18.80;99.90;;;;;;5090667;28;20489;-88
2022/06/09 05:07:32;;;;;;;;;;;18.60;99.90;;;;;;5091533;28;20054;-86
2022/06/09 05:09:58;;;;;;;1927.57;422.83;;;17.50;99.90;;;;;;5099966;28;19932;-85
2022/06/09 05:12:24;;;;;;;1999.90;455.17;;;17.60;99.90;;;;;;5073126;28;20079;-84
2022/06/09 05:14:52;;;;;;;1999.90;525.67;;;17.60;99.90;;;;;;5090226;28;20040;-85
2022/06/09 05:17:18;;;;;;;;;;;18.20;99.90;;;;;;5091179;28;20449;-85
2022/06/09 05:19:43;;;;;;;1362.50;292.33;;;18.90;99.90;;;;;;5100613;28;20380;-85
2022/06/09 05:22:09;;;;;;;1999.90;435.95;;;18.20;99.90;;;;;;5111932;28;20071;-86
2022/06/09 05:24:35;;;;;;;1987.75;468.85;;;18.50;99.90;;;;;;5074908;28;20123;-84
2022/06/09 05:27:01;;;;;;;1999.90;579.30;;;18.70;99.90;;;;;;5093171;28;20055;-86
2022/06/09 05:29:26;;;;;;;1999.10;468.23;;;17.50;99.90;;;;;;5081172;28;20569;-86
2022/06/09 05:32:02;;;;;;;;;;;;;;;;;;;;;
2022/06/09 05:34:30;;;;;;;1999.90;434.52;;;17.90;99.90;;;;;;5105107;27;20062;-85
2022/06/09 05:36:57;;;;;;;1999.90;583.10;;;18.80;99.90;;;;;;5119858;27;20039;-86
2022/06/09 05:44:50;;;;;;;1870.22;437.20;;;18.00;99.90;;;;;;5077048;28;20214;-86
2022/06/09 05:45:12;;;;;;;1999.90;465.17;;;18.50;99.90;;;;;;5090453;28;20259;-86
2022/06/09 05:47:38;;;;;;;1999.90;640.03;;;18.00;99.90;;;;;;5096165;28;20040;-85
2022/06/09 05:50:06;;;;;;;1999.90;749.05;;;17.90;99.90;;;;;;5112767;27;20051;-86
2022/06/09 05:52:32;;;;;;;;;;;18.00;99.90;;;;;;5129437;27;20058;-88
2022/06/09 05:54:58;;;;;;;1917.57;408.88;;;19.10;99.90;;;;;;5124456;28;19923;-88
2022/06/09 05:57:25;;;;;;;1999.90;660.28;;;18.50;99.90;;;;;;5131890;27;20040;-87
2022/06/09 05:59:51;;;;;;;1999.90;657.97;;;18.00;99.90;;;;;;5146644;27;20126;-86
2022/06/09 06:02:19;;;;;;;1999.90;542.83;;;18.00;99.90;;;;;;5143114;27;20130;-85
2022/06/09 06:04:46;;;;;;;1999.90;660.40;;;17.80;99.90;;;;;;5114214;28;20047;-86
2022/06/09 06:07:12;;;;;;;1999.90;710.47;;;18.80;99.90;;;;;;5114240;28;20057;-86
2022/06/09 06:09:38;;;;;;;1999.90;648.70;;;18.70;99.90;;;;;;5101238;27;20043;-86
2022/06/09 06:12:07;;;;;;;1999.90;797.08;;;17.90;99.90;;;;;;5116136;27;20095;-87
2022/06/09 06:14:33;;;;;;;1999.90;810.72;;;18.30;99.90;;;;;;5114231;28;20061;-86
2022/06/09 06:16:59;;;;;;;1999.90;802.67;;;16.80;99.90;;;;;;5114141;28;20116;-86
2022/06/09 06:19:25;;;;;;;1999.90;887.45;;;19.20;99.90;;;;;;5113744;28;20039;-86
2022/06/09 06:21:52;;;;;;;1999.90;889.50;;;18.60;99.90;;;;;;5123292;27;20050;-87
2022/06/09 06:24:21;;;;;;;1999.90;949.80;;;19.50;99.90;;;;;;5125520;27;20041;-87
2022/06/09 06:26:47;;;;;;;1999.90;964.30;;;19.30;99.90;;;;;;5115398;27;20295;-87
2022/06/09 06:29:17;;;;;;;1999.90;967.30;;;19.80;99.90;;;;;;5108353;28;20035;-85
2022/06/09 06:31:44;;;;;;;1999.90;998.45;;;19.50;99.90;;;;;;5131072;27;20042;-87
2022/06/09 06:34:10;;;;;;;1999.90;998.28;;;;;;;;;;5135063;27;20100;-87
2022/06/09 06:36:36;;;;;;;1999.90;999.90;;;18.40;99.90;;;;;;5119131;27;20278;-87
2022/06/09 06:39:03;;;;;;;1999.90;999.90;;;19.30;99.90;;;;;;5138185;27;20046;-88
2022/06/09 06:41:30;;;;;;;1999.90;999.90;;;20.20;99.90;;;;;;5125753;27;20046;-87
2022/06/09 06:43:56;;;;;;;1999.90;999.90;;;19.30;99.90;;;;;;5117707;27;20479;-88
2022/06/09 06:46:22;;;;;;;1999.90;999.90;;;19.50;99.90;;;;;;5124156;27;20051;-88
2022/06/09 06:48:48;;;;;;;1999.90;999.90;;;20.30;99.90;;;;;;5116622;27;20213;-88
2022/06/09 06:51:14;;;;;;;1999.90;999.90;;;19.90;99.90;;;;;;5116613;27;20074;-87
2022/06/09 06:53:43;;;;;;;1999.90;999.90;;;19.80;99.90;;;;;;5104164;27;20364;-87
2022/06/09 06:56:09;;;;;;;1999.90;999.13;;;21.10;99.90;;;;;;5119961;27;20042;-87
2022/06/09 06:58:36;;;;;;;1999.90;999.90;;;20.10;99.90;;;;;;5137347;27;20042;-86
2022/06/09 07:01:03;;;;;;;1999.90;999.90;;;19.90;99.90;;;;;;5135392;27;20053;-87
2022/06/09 07:03:32;;;;;;;1999.90;999.90;;;20.40;99.90;;;;;;5100069;27;20066;-86
2022/06/09 07:05:58;;;;;;;1999.90;999.90;;;19.80;99.90;;;;;;5103736;27;20039;-86
2022/06/09 07:08:24;;;;;;;1999.90;999.90;;;20.00;99.90;;;;;;5143854;27;20038;-86
2022/06/09 07:10:51;;;;;;;1999.90;999.90;;;22.20;99.90;;;;;;5097043;27;20131;-85
2022/06/09 07:13:18;;;;;;;1999.90;999.90;;;22.10;99.90;;;;;;5107032;27;20149;-86
2022/06/09 07:15:43;;;;;;;1999.90;999.90;;;23.60;99.90;;;;;;5135098;27;20126;-85
2022/06/09 07:18:09;;;;;;;1999.90;999.90;;;24.00;99.90;;;;;;5101271;27;20070;-85
2022/06/09 07:20:36;;;;;;;1999.90;999.90;;;23.80;99.90;;;;;;5117310;27;20079;-85
2022/06/09 07:23:02;;;;;;;1999.90;999.90;;;24.00;99.90;;;;;;5135744;27;20046;-85
2022/06/09 07:25:28;;;;;;;1999.90;465.95;;;24.30;99.90;;;;;;5117412;27;20043;-84
2022/06/09 07:27:55;;;;;;;1999.90;999.90;;;25.10;99.90;;;;;;5117658;27;20050;-84
2022/06/09 07:30:23;;;;;;;1999.90;999.90;;;25.30;99.90;;;;;;5136312;27;20200;-84
2022/06/09 07:32:49;;;;;;;1999.90;999.90;;;24.50;99.90;;;;;;5138132;27;20078;-84
2022/06/09 07:35:19;;;;;;;1821.55;850.42;;;26.60;99.90;;;;;;5156055;27;20050;-86
2022/06/09 07:37:45;;;;;;;1999.90;999.90;;;25.40;99.90;;;;;;5137432;27;20054;-84
2022/06/09 07:40:11;;;;;;;1999.90;999.90;;;25.40;99.90;;;;;;5146294;27;20122;-82
2022/06/09 07:42:37;;;;;;;1994.45;582.28;;;24.90;99.90;;;;;;5134270;27;20440;-83
2022/06/09 07:45:05;;;;;;;1999.90;999.90;;;25.30;99.90;;;;;;5142531;27;20042;-81
2022/06/09 07:47:31;;;;;;;1172.28;881.80;;;26.00;99.90;;;;;;5155250;27;20501;-81
2022/06/09 07:49:57;;;;;;;1347.07;999.90;;;26.20;99.90;;;;;;5137142;27;20085;-82
2022/06/09 07:52:23;;;;;;;1029.22;874.92;;;26.30;99.90;;;;;;5115823;27;20092;-83
2022/06/09 07:54:49;;;;;;;1023.63;916.25;;;26.80;99.90;;;;;;5129147;27;20095;-83
2022/06/09 07:57:14;;;;;;;1041.28;938.78;;;27.00;99.90;;;;;;5155449;27;20038;-82
2022/06/09 07:59:40;;;;;;;1129.93;997.20;;;26.70;99.90;;;;;;5119493;27;20073;-82
2022/06/09 08:02:06;;;;;;;1605.13;999.90;;;26.80;99.90;;;;;;5134182;27;20043;-83
2022/06/09 08:04:33;;;;;;;1999.90;999.90;;;27.00;99.90;;;;;;5134451;27;20459;-82
2022/06/09 08:06:58;;;;;;;940.13;854.75;;;27.50;99.90;;;;;;5116323;27;20085;-82
2022/06/09 08:09:24;;;;;;;1346.88;999.90;;;28.10;99.90;;;;;;5116347;27;20105;-82
2022/06/09 08:11:50;;;;;;;1525.75;999.90;;;27.80;99.90;;;;;;5114955;27;20047;-83
2022/06/09 08:14:16;;;;;;;1776.38;999.90;;;27.30;99.90;;;;;;5116190;27;20126;-83
2022/06/09 08:16:43;;;;;;;1169.25;999.90;;;27.30;99.90;;;;;;5120212;27;20039;-83
2022/06/09 08:19:09;;;;;;;1479.43;999.90;;;28.10;99.90;;;;;;5115736;27;20051;-82
2022/06/09 08:21:35;;;;;;;1701.05;999.90;;;28.70;99.90;;;;;;5138412;27;20050;-81
2022/06/09 08:24:01;;;;;;;1763.13;999.90;;;29.10;99.90;;;;;;5136107;27;20395;-83
2022/06/09 08:26:27;;;;;;;1736.95;999.90;;;29.80;99.90;;;;;;5153777;27;20057;-83
2022/06/09 08:28:54;;;;;;;1999.90;999.90;;;30.20;99.90;;;;;;5135277;27;20046;-83
2022/06/09 08:31:20;;;;;;;1999.90;999.90;;;29.10;99.90;;;;;;5133861;27;20150;-84
2022/06/09 08:33:46;;;;;;;1999.90;999.90;;;28.90;99.90;;;;;;5135261;27;20043;-84
2022/06/09 08:36:12;;;;;;;1999.90;999.90;;;28.00;99.90;;;;;;5118561;27;20444;-83
2022/06/09 08:38:38;;;;;;;1829.05;999.90;;;28.40;99.90;;;;;;5135452;27;20335;-84
2022/06/09 08:41:27;;;;;;;1244.43;999.90;;;29.00;99.90;;;;;;5153074;27;20114;-83
2022/06/09 08:44:11;;;;;;;1999.90;999.90;;;29.30;99.90;;;;;;5132931;27;20540;-81
2022/06/09 08:46:49;;;;;;;1520.03;999.90;;;29.00;99.90;;;;;;5114651;27;20130;-84
2022/06/09 08:49:29;;;;;;;;;;;28.00;99.90;;;;;;5120625;27;20398;-82
2022/06/09 08:52:02;;;;;;;1999.90;999.90;;;27.60;99.90;;;;;;5134871;27;20014;-82
2022/06/09 08:54:34;;;;;;;1999.90;999.90;;;28.30;99.90;;;;;;5123577;27;20084;-80
2022/06/09 08:57:15;;;;;;;1999.90;999.90;;;28.80;99.90;;;;;;5132680;27;20073;-80
2022/06/09 08:59:42;;;;;;;1999.90;999.90;;;29.90;99.90;;;;;;5119424;27;20043;-79
2022/06/09 09:02:35;;;;;;;1999.90;999.90;;;29.20;99.90;;;;;;5144412;27;20108;-82
2022/06/09 09:05:19;;;;;;;1999.90;999.90;;;30.00;99.90;;;;;;5097231;27;20468;-83
2022/06/09 09:07:48;;;;;;;1999.90;999.90;;;29.90;99.90;;;;;;5132093;27;20039;-80
2022/06/09 09:10:26;;;;;;;1999.90;999.90;;;29.50;99.90;;;;;;5113742;27;20077;-80
2022/06/09 09:13:23;;;;;;;1999.90;999.90;;;28.20;99.90;;;;;;5135724;27;20502;-79
2022/06/09 09:15:56;;;;;;;1999.90;999.90;;;28.10;99.90;;;;;;5132285;27;20054;-80
2022/06/09 09:18:45;;;;;;;1999.90;999.90;;;28.80;99.90;;;;;;5114662;27;20059;-80
2022/06/09 09:21:23;;;;;;;1999.90;999.90;;;28.80;99.90;;;;;;5114291;27;20395;-80
2022/06/09 09:23:59;;;;;;;1999.90;999.90;;;28.90;99.90;;;;;;5147200;27;20050;-80
2022/06/09 09:26:50;;;;;;;1999.90;999.90;;;29.70;99.90;;;;;;5134245;27;20386;-83
2022/06/09 09:29:39;;;;;;;1999.90;999.90;;;29.70;99.90;;;;;;5153244;27;20031;-82
2022/06/09 09:32:13;;;;;;;1999.90;999.90;;;30.00;99.90;;;;;;5146438;27;20548;-82
2022/06/09 09:34:44;;;;;;;1999.90;999.90;;;29.60;99.90;;;;;;5124345;27;20431;-83
2022/06/09 09:37:26;;;;;;;1999.90;999.90;;;29.20;99.90;;;;;;5151874;27;20129;-83
2022/06/09 09:39:54;;;;;;;1999.90;999.90;;;28.80;99.90;;;;;;5128129;27;20391;-80
2022/06/09 09:42:29;;;;;;;1999.90;999.90;;;28.50;99.90;;;;;;5114208;28;20107;-80
2022/06/09 09:45:17;;;;;;;1999.90;999.90;;;28.00;99.90;;;;;;5138545;27;20142;-79
2022/06/09 09:47:49;;;;;;;1999.90;999.90;;;27.50;99.90;;;;;;5122539;27;20100;-80
2022/06/09 09:50:36;;;;;;;1999.90;999.90;;;28.10;99.90;;;;;;5113068;28;20134;-80
2022/06/09 09:53:17;;;;;;;1999.90;999.90;;;29.20;99.90;;;;;;5113731;28;20069;-80
2022/06/09 09:55:57;;;;;;;1999.90;999.90;;;27.40;99.90;;;;;;5112838;28;20126;-80
2022/06/09 09:58:33;;;;;;;1999.90;999.90;;;27.90;99.90;;;;;;5104244;28;20050;-79
2022/06/09 10:01:04;;;;;;;1999.90;999.90;;;28.50;99.90;;;;;;5131499;28;20043;-82
2022/06/09 10:09:24;;;;;;;1910.97;999.90;;;27.40;99.90;;;;;;5117761;27;20108;-81
2022/06/09 10:11:53;;;;;;;1609.13;999.90;;;28.30;99.90;;;;;;5135217;27;20047;-78
2022/06/09 10:14:39;;;;;;;1875.82;962.33;;;29.10;99.90;;;;;;5135004;27;20118;-80
2022/06/09 10:17:18;;;;;;;726.78;649.67;;;28.20;99.90;;;;;;5136172;27;20047;-80
2022/06/09 10:19:49;;;;;;;1495.03;999.90;;;29.20;99.90;;;;;;5137097;27;20166;-81
2022/06/09 10:22:19;;;;;;;1174.13;934.67;;;29.60;99.90;;;;;;5157031;27;20134;-78
2022/06/09 10:25:00;;;;;;;1892.85;999.90;;;30.40;99.90;;;;;;5133600;27;20130;-81
2022/06/09 10:27:37;;;;;;;1661.18;999.90;;;30.40;99.90;;;;;;5119112;27;20039;-79
2022/06/09 10:30:12;;;;;;;1397.05;999.90;;;30.60;99.90;;;;;;5135756;27;20491;-80
2022/06/09 10:32:49;;;;;;;1094.97;971.25;;;30.70;99.90;;;;;;5136424;27;20506;-81
2022/06/09 10:35:28;;;;;;;1276.60;999.90;;;29.90;99.90;;;;;;5117603;27;20479;-81
2022/06/09 10:38:02;;;;;;;1355.32;999.90;;;31.40;99.90;;;;;;5117295;27;20083;-81
2022/06/09 10:40:39;;;;;;;1573.80;999.90;;;32.20;99.90;;;;;;5117178;27;20050;-81
2022/06/09 10:43:47;;;;;;;1331.50;996.50;;;31.80;99.90;;;;;;5117572;27;20043;-79
2022/06/09 10:46:13;;;;;;;1038.22;931.80;;;29.80;99.90;;;;;;5128770;27;20069;-82
2022/06/09 10:55:18;;;;;;;1021.90;916.30;;;30.60;99.90;;;;;;5141062;27;20051;-82
2022/06/09 10:58:13;;;;;;;1043.97;934.67;;;31.00;99.90;;;;;;5117637;27;20070;-82
2022/06/09 11:00:47;;;;;;;1020.45;919.72;;;30.30;99.90;;;;;;5142431;27;20034;-81
2022/06/09 11:03:25;;;;;;;1059.22;941.22;;;30.90;99.90;;;;;;5121411;27;20348;-81
2022/06/09 11:06:16;;;;;;;1042.90;932.38;;;30.60;99.90;;;;;;5134618;27;20304;-81
2022/06/09 11:08:48;;;;;;;1215.35;971.85;;;31.00;99.90;;;;;;5116526;27;20495;-82
2022/06/09 11:11:40;;;;;;;1040.05;927.40;;;31.10;99.90;;;;;;5134199;27;20082;-82
2022/06/09 11:14:15;;;;;;;1091.82;944.33;;;29.60;99.90;;;;;;5151232;27;20043;-82
2022/06/09 11:16:54;;;;;;;1119.95;954.45;;;29.50;99.90;;;;;;5136442;27;20084;-81
2022/06/09 11:19:40;;;;;;;1046.65;914.85;;;30.30;99.90;;;;;;5152316;27;20462;-82
2022/06/09 11:22:21;;;;;;;985.45;880.60;;;29.90;99.90;;;;;;5122585;27;20073;-81
2022/06/09 11:25:04;;;;;;;1073.40;938.28;;;29.90;99.90;;;;;;5152573;27;20142;-81
2022/06/09 11:28:06;;;;;;;1227.57;967.47;;;30.10;99.90;;;;;;5136925;27;20039;-82
2022/06/09 11:30:58;;;;;;;1151.38;932.10;;;30.20;99.90;;;;;;5137322;27;20054;-81
2022/06/09 11:33:46;;;;;;;1193.10;950.25;;;30.60;99.90;;;;;;5155458;27;20043;-81
2022/06/09 11:36:37;;;;;;;1058.95;919.67;;;31.10;99.90;;;;;;5125046;27;20042;-81
2022/06/09 11:39:49;;;;;;;1277.90;996.97;;;31.30;99.90;;;;;;5146860;27;20130;-82
2022/06/09 11:42:49;;;;;;;1007.13;868.15;;;31.10;99.90;;;;;;5097273;27;20055;-81
2022/06/09 11:45:27;;;;;;;1250.25;959.28;;;31.00;99.90;;;;;;5134005;27;20051;-81
2022/06/09 11:47:56;;;;;;;1133.32;926.40;;;31.50;99.90;;;;;;5134249;27;20058;-83
2022/06/09 11:50:28;;;;;;;1350.13;942.30;;;29.90;99.90;;;;;;5134008;27;20059;-81
2022/06/09 11:52:58;;;;;;;1203.50;918.78;;;29.60;99.90;;;;;;5144634;27;20051;-81
2022/06/09 11:58:49;;;;;;;1306.07;955.63;;;30.10;99.90;;;;;;5115859;27;20051;-81
2022/06/09 12:01:32;;;;;;;1191.38;893.13;;;30.40;99.90;;;;;;5080896;27;20509;-80
2022/06/09 12:04:33;;;;;;;1347.80;952.63;;;30.20;99.90;;;;;;5115589;27;20099;-84
2022/06/09 12:07:43;;;;;;;1017.40;842.92;;;29.40;99.90;;;;;;5138159;27;20462;-81
2022/06/09 12:10:33;;;;;;;1054.78;887.67;;;30.20;99.90;;;;;;5048987;28;20048;-81
2022/06/09 12:13:06;;;;;;;1104.82;848.05;;;30.70;99.90;;;;;;5041115;28;20081;-83
2022/06/09 12:15:45;;;;;;;1099.03;907.75;;;30.70;99.90;;;;;;5082888;27;20468;-81
2022/06/09 12:18:16;;;;;;;1184.10;873.42;;;29.70;99.90;;;;;;5114597;27;20051;-82
2022/06/09 12:20:48;;;;;;;967.55;866.90;;;27.70;99.90;;;;;;5115438;27;20127;-82
2022/06/09 12:23:29;;;;;;;1004.03;892.22;;;28.20;99.90;;;;;;5129557;27;20129;-83
2022/06/09 12:26:09;;;;;;;1036.18;926.60;;;27.10;99.90;;;;;;5135343;27;20122;-83
2022/06/09 12:28:52;;;;;;;969.15;865.90;;;26.50;99.90;;;;;;5128977;27;20054;-82
2022/06/09 12:31:27;;;;;;;1059.22;934.17;;;26.90;99.90;;;;;;5133768;27;20327;-83
2022/06/09 12:34:02;;;;;;;1071.00;952.90;;;26.30;99.90;;;;;;5152671;27;20518;-81
2022/06/09 12:36:52;;;;;;;1594.63;998.72;;;26.30;99.90;;;;;;5119322;27;20043;-81
2022/06/09 12:39:29;;;;;;;1061.50;949.03;;;26.50;99.90;;;;;;5107695;27;20047;-81
2022/06/09 12:41:58;;;;;;;1136.18;970.95;;;26.50;99.90;;;;;;5123998;27;20514;-81
2022/06/09 12:44:24;;;;;;;1621.13;999.90;;;26.40;99.90;;;;;;5118382;27;20043;-81
2022/06/09 12:47:21;;;;;;;1485.93;997.92;;;26.30;99.90;;;;;;5131772;27;20065;-82